createdAt,value
2019-03-21T00:00:50.493Z,1026.96
2019-03-21T00:01:50.486Z,1026.95
2019-03-21T00:02:50.470Z,1026.98
2019-03-21T00:03:50.459Z,1026.93
2019-03-21T00:04:50.476Z,1027.02
2019-03-21T00:05:50.444Z,1027.01
2019-03-21T00:06:50.453Z,1026.95
2019-03-21T00:07:50.435Z,1027.04
2019-03-21T00:08:50.410Z,1027.10
2019-03-21T00:09:50.398Z,1027.08
2019-03-21T00:10:50.398Z,1027.06
2019-03-21T00:11:50.371Z,1027.07
2019-03-21T00:12:50.362Z,1027.07
2019-03-21T00:13:50.358Z,1027.13
2019-03-21T00:14:50.367Z,1027.08
2019-03-21T00:15:50.338Z,1027.08
2019-03-21T00:16:50.323Z,1027.06
2019-03-21T00:17:50.309Z,1027.10
2019-03-21T00:18:50.298Z,1027.07
2019-03-21T00:19:50.292Z,1027.04
2019-03-21T00:20:50.298Z,1027.05
2019-03-21T00:21:50.269Z,1027.06
2019-03-21T00:22:50.256Z,1026.98
2019-03-21T00:23:50.242Z,1026.96
2019-03-21T00:24:50.235Z,1026.97
2019-03-21T00:25:50.236Z,1026.99
2019-03-21T00:26:50.216Z,1027.06
2019-03-21T00:27:50.208Z,1027.09
2019-03-21T00:28:50.196Z,1027.03
2019-03-21T00:29:50.182Z,1027.07
2019-03-21T00:30:50.169Z,1027.03
2019-03-21T00:31:50.159Z,1027.06
2019-03-21T00:32:50.178Z,1027.02
2019-03-21T00:33:50.135Z,1027.05
2019-03-21T00:34:50.128Z,1027.03
2019-03-21T00:35:50.115Z,1027.03
2019-03-21T00:36:50.100Z,1026.94
2019-03-21T00:37:50.105Z,1027.05
2019-03-21T00:38:50.080Z,1027.04
2019-03-21T00:39:50.077Z,1026.98
2019-03-21T00:40:50.063Z,1027.03
2019-03-21T00:41:50.059Z,1027.01
2019-03-21T00:42:50.050Z,1027.10
2019-03-21T00:43:50.027Z,1027.00
2019-03-21T00:44:50.019Z,1027.03
2019-03-21T00:45:50.004Z,1027.07
2019-03-21T00:46:50.037Z,1027.07
2019-03-21T00:47:49.980Z,1027.02
2019-03-21T00:48:49.969Z,1027.08
2019-03-21T00:49:49.964Z,1027.04
2019-03-21T00:50:49.953Z,1027.07
2019-03-21T00:51:49.942Z,1027.08
2019-03-21T00:52:49.947Z,1027.11
2019-03-21T00:53:49.916Z,1027.13
2019-03-21T00:54:49.910Z,1027.10
2019-03-21T00:55:49.896Z,1027.11
2019-03-21T00:56:49.884Z,1027.15
2019-03-21T00:57:49.914Z,1027.11
2019-03-21T00:58:49.874Z,1027.12
2019-03-21T00:59:49.858Z,1027.14
2019-03-21T01:00:49.844Z,1027.09
2019-03-21T01:01:49.829Z,1027.11
2019-03-21T01:02:49.824Z,1027.06
2019-03-21T01:03:49.825Z,1027.07
2019-03-21T01:04:49.801Z,1027.07
2019-03-21T01:05:49.784Z,1027.11
2019-03-21T01:06:49.782Z,1027.08
2019-03-21T01:07:49.768Z,1027.03
2019-03-21T01:08:49.781Z,1027.10
2019-03-21T01:09:49.750Z,1027.07
2019-03-21T01:10:49.745Z,1027.08
2019-03-21T01:11:49.723Z,1027.06
2019-03-21T01:12:49.708Z,1027.08
2019-03-21T01:13:49.706Z,1027.04
2019-03-21T01:14:49.692Z,1027.02
2019-03-21T01:15:49.698Z,1027.02
2019-03-21T01:16:49.670Z,1027.05
2019-03-21T01:17:49.654Z,1027.02
2019-03-21T01:18:49.664Z,1027.04
2019-03-21T01:19:49.649Z,1027.05
2019-03-21T01:20:49.632Z,1027.04
2019-03-21T01:21:49.614Z,1027.06
2019-03-21T01:22:49.603Z,1027.02
2019-03-21T01:23:49.594Z,1027.06
2019-03-21T01:24:49.715Z,1027.09
2019-03-21T01:25:49.572Z,1027.07
2019-03-21T01:26:49.567Z,1027.11
2019-03-21T01:27:49.546Z,1027.05
2019-03-21T01:28:49.535Z,1027.08
2019-03-21T01:29:49.527Z,1027.09
2019-03-21T01:30:49.533Z,1027.08
2019-03-21T01:31:49.540Z,1027.01
2019-03-21T01:32:49.498Z,1027.04
2019-03-21T01:33:49.484Z,1027.12
2019-03-21T01:34:49.473Z,1027.09
2019-03-21T01:35:49.470Z,1027.03
2019-03-21T01:36:49.457Z,1027.10
2019-03-21T01:37:49.448Z,1027.07
2019-03-21T01:38:49.452Z,1026.99
2019-03-21T01:39:49.419Z,1027.01
2019-03-21T01:40:49.463Z,1027.02
2019-03-21T01:41:49.393Z,1026.97
2019-03-21T01:42:49.387Z,1026.99
2019-03-21T01:43:49.381Z,1026.91
2019-03-21T01:44:49.364Z,1026.90
2019-03-21T01:45:49.349Z,1026.91
2019-03-21T01:46:49.356Z,1026.90
2019-03-21T01:47:49.327Z,1026.89
2019-03-21T01:48:49.323Z,1026.93
2019-03-21T01:49:49.310Z,1026.90
2019-03-21T01:50:49.296Z,1026.88
2019-03-21T01:51:49.295Z,1026.89
2019-03-21T01:52:49.279Z,1026.89
2019-03-21T01:53:49.267Z,1026.89
2019-03-21T01:54:49.275Z,1026.86
2019-03-21T01:55:49.254Z,1026.89
2019-03-21T01:56:49.254Z,1026.87
2019-03-21T01:57:49.218Z,1026.83
2019-03-21T01:58:49.212Z,1026.79
2019-03-21T01:59:49.235Z,1026.77
2019-03-21T02:00:49.193Z,1026.81
2019-03-21T02:01:49.254Z,1026.78
2019-03-21T02:02:49.162Z,1026.73
2019-03-21T02:03:49.157Z,1026.73
2019-03-21T02:04:49.155Z,1026.75
2019-03-21T02:05:49.134Z,1026.71
2019-03-21T02:06:49.120Z,1026.74
2019-03-21T02:07:49.141Z,1026.80
2019-03-21T02:08:49.097Z,1026.76
2019-03-21T02:09:49.091Z,1026.75
2019-03-21T02:10:49.075Z,1026.79
2019-03-21T02:11:49.069Z,1026.79
2019-03-21T02:12:49.064Z,1026.73
2019-03-21T02:13:49.048Z,1026.77
2019-03-21T02:14:52.370Z,1026.72
2019-03-21T02:15:50.768Z,1026.75
2019-03-21T02:16:49.033Z,1026.74
2019-03-21T02:17:49.026Z,1026.63
2019-03-21T02:18:48.991Z,1026.67
2019-03-21T02:19:48.992Z,1026.65
2019-03-21T02:20:48.976Z,1026.64
2019-03-21T02:21:48.954Z,1026.68
2019-03-21T02:22:48.956Z,1026.72
2019-03-21T02:23:48.941Z,1026.71
2019-03-21T02:24:48.928Z,1026.68
2019-03-21T02:25:48.909Z,1026.72
2019-03-21T02:26:48.903Z,1026.75
2019-03-21T02:27:48.904Z,1026.69
2019-03-21T02:28:48.884Z,1026.69
2019-03-21T02:29:48.866Z,1026.71
2019-03-21T02:30:48.885Z,1026.68
2019-03-21T02:31:48.843Z,1026.65
2019-03-21T02:32:48.881Z,1026.60
2019-03-21T02:33:48.824Z,1026.66
2019-03-21T02:34:48.811Z,1026.59
2019-03-21T02:35:48.802Z,1026.63
2019-03-21T02:36:48.798Z,1026.55
2019-03-21T02:37:48.783Z,1026.53
2019-03-21T02:38:48.843Z,1026.57
2019-03-21T02:39:59.500Z,1026.59
2019-03-21T02:40:49.765Z,1026.58
2019-03-21T02:41:48.740Z,1026.53
2019-03-21T02:42:48.728Z,1026.55
2019-03-21T02:43:48.718Z,1026.60
2019-03-21T02:44:48.801Z,1026.58
2019-03-21T02:45:48.709Z,1026.59
2019-03-21T02:46:48.684Z,1026.61
2019-03-21T02:47:48.675Z,1026.58
2019-03-21T02:48:48.673Z,1026.59
2019-03-21T02:49:48.670Z,1026.57
2019-03-21T02:50:48.654Z,1026.65
2019-03-21T02:51:48.635Z,1026.57
2019-03-21T02:52:48.616Z,1026.55
2019-03-21T02:53:48.682Z,1026.58
2019-03-21T02:54:48.602Z,1026.57
2019-03-21T02:55:48.595Z,1026.55
2019-03-21T02:56:48.593Z,1026.56
2019-03-21T02:57:48.567Z,1026.60
2019-03-21T02:58:48.554Z,1026.57
2019-03-21T02:59:48.544Z,1026.56
2019-03-21T03:00:48.541Z,1026.56
2019-03-21T03:01:48.531Z,1026.52
2019-03-21T03:02:48.507Z,1026.62
2019-03-21T03:03:48.503Z,1026.57
2019-03-21T03:04:48.501Z,1026.63
2019-03-21T03:05:48.474Z,1026.62
2019-03-21T03:06:48.515Z,1026.56
2019-03-21T03:07:48.463Z,1026.59
2019-03-21T03:08:48.446Z,1026.58
2019-03-21T03:09:48.441Z,1026.58
2019-03-21T03:10:48.424Z,1026.58
2019-03-21T03:11:48.419Z,1026.60
2019-03-21T03:12:48.422Z,1026.60
2019-03-21T03:13:48.409Z,1026.56
2019-03-21T03:14:48.401Z,1026.60
2019-03-21T03:15:48.369Z,1026.64
2019-03-21T03:16:48.354Z,1026.56
2019-03-21T03:17:48.357Z,1026.65
2019-03-21T03:18:48.356Z,1026.64
2019-03-21T03:19:48.336Z,1026.63
2019-03-21T03:20:48.324Z,1026.65
2019-03-21T03:21:48.307Z,1026.62
2019-03-21T03:22:48.290Z,1026.67
2019-03-21T03:23:48.346Z,1026.61
2019-03-21T03:24:48.283Z,1026.57
2019-03-21T03:25:50.941Z,1026.59
2019-03-21T03:26:48.253Z,1026.60
2019-03-21T03:27:48.242Z,1026.64
2019-03-21T03:28:48.228Z,1026.68
2019-03-21T03:29:48.252Z,1026.70
2019-03-21T03:30:48.213Z,1026.71
2019-03-21T03:31:48.206Z,1026.69
2019-03-21T03:32:48.184Z,1026.66
2019-03-21T03:33:48.170Z,1026.68
2019-03-21T03:34:48.186Z,1026.73
2019-03-21T03:35:48.154Z,1026.72
2019-03-21T03:36:48.140Z,1026.73
2019-03-21T03:37:48.130Z,1026.73
2019-03-21T03:38:48.123Z,1026.72
2019-03-21T03:39:48.115Z,1026.73
2019-03-21T03:40:48.105Z,1026.74
2019-03-21T03:41:48.087Z,1026.69
2019-03-21T03:42:48.100Z,1026.71
2019-03-21T03:43:48.057Z,1026.71
2019-03-21T03:44:48.056Z,1026.79
2019-03-21T03:45:48.046Z,1026.76
2019-03-21T03:46:48.041Z,1026.75
2019-03-21T03:47:48.011Z,1026.79
2019-03-21T03:48:48.003Z,1026.80
2019-03-21T03:49:47.997Z,1026.77
2019-03-21T03:50:47.993Z,1026.82
2019-03-21T03:51:47.985Z,1026.76
2019-03-21T03:52:48.061Z,1026.76
2019-03-21T03:53:47.954Z,1026.73
2019-03-21T03:54:47.938Z,1026.74
2019-03-21T03:55:47.950Z,1026.70
2019-03-21T03:56:47.925Z,1026.74
2019-03-21T03:57:47.923Z,1026.72
2019-03-21T03:58:47.897Z,1026.70
2019-03-21T03:59:47.889Z,1026.72
2019-03-21T04:00:47.881Z,1026.68
2019-03-21T04:01:47.862Z,1026.70
2019-03-21T04:02:47.859Z,1026.71
2019-03-21T04:03:47.847Z,1026.66
2019-03-21T04:04:47.836Z,1026.67
2019-03-21T04:05:47.835Z,1026.74
2019-03-21T04:06:47.812Z,1026.73
2019-03-21T04:07:47.796Z,1026.70
2019-03-21T04:08:47.792Z,1026.74
2019-03-21T04:09:47.820Z,1026.70
2019-03-21T04:10:47.774Z,1026.68
2019-03-21T04:11:47.752Z,1026.71
2019-03-21T04:12:47.740Z,1026.73
2019-03-21T04:13:47.730Z,1026.80
2019-03-21T04:14:47.729Z,1026.80
2019-03-21T04:15:53.168Z,1026.74
2019-03-21T04:16:48.701Z,1026.74
2019-03-21T04:17:47.692Z,1026.82
2019-03-21T04:18:47.727Z,1026.81
2019-03-21T04:19:47.667Z,1026.85
2019-03-21T04:20:47.653Z,1026.78
2019-03-21T04:21:47.651Z,1026.82
2019-03-21T04:22:47.631Z,1026.80
2019-03-21T04:23:47.632Z,1026.83
2019-03-21T04:24:47.609Z,1026.86
2019-03-21T04:25:47.609Z,1026.84
2019-03-21T04:26:47.586Z,1026.81
2019-03-21T04:27:47.579Z,1026.77
2019-03-21T04:28:47.587Z,1026.87
2019-03-21T04:29:47.558Z,1026.80
2019-03-21T04:30:47.549Z,1026.82
2019-03-21T04:31:47.532Z,1026.77
2019-03-21T04:32:47.529Z,1026.78
2019-03-21T04:33:47.513Z,1026.82
2019-03-21T04:34:47.515Z,1026.78
2019-03-21T04:35:47.495Z,1026.74
2019-03-21T04:36:47.502Z,1026.75
2019-03-21T04:37:47.468Z,1026.81
2019-03-21T04:38:47.466Z,1026.82
2019-03-21T04:39:47.472Z,1026.86
2019-03-21T04:40:47.434Z,1026.80
2019-03-21T04:41:47.436Z,1026.83
2019-03-21T04:42:47.412Z,1026.84
2019-03-21T04:43:47.406Z,1026.83
2019-03-21T04:44:47.391Z,1026.83
2019-03-21T04:45:47.383Z,1026.82
2019-03-21T04:46:47.391Z,1026.89
2019-03-21T04:47:47.357Z,1026.91
2019-03-21T04:48:47.348Z,1026.91
2019-03-21T04:49:47.338Z,1026.95
2019-03-21T04:50:47.328Z,1026.90
2019-03-21T04:51:47.324Z,1026.92
2019-03-21T04:52:47.318Z,1026.87
2019-03-21T04:53:47.296Z,1026.90
2019-03-21T04:54:47.287Z,1026.87
2019-03-21T04:55:47.276Z,1026.87
2019-03-21T04:56:47.266Z,1026.87
2019-03-21T04:57:47.262Z,1026.87
2019-03-21T04:58:47.241Z,1026.89
2019-03-21T04:59:47.224Z,1026.89
2019-03-21T05:00:47.219Z,1026.95
2019-03-21T05:01:47.202Z,1026.87
2019-03-21T05:02:47.208Z,1026.87
2019-03-21T05:03:47.186Z,1026.89
2019-03-21T05:04:47.193Z,1026.92
2019-03-21T05:05:47.161Z,1026.87
2019-03-21T05:06:47.154Z,1026.87
2019-03-21T05:07:47.141Z,1026.93
2019-03-21T05:08:47.159Z,1026.88
2019-03-21T05:09:47.119Z,1026.97
2019-03-21T05:10:47.107Z,1026.93
2019-03-21T05:11:47.114Z,1026.93
2019-03-21T05:12:47.084Z,1026.91
2019-03-21T05:13:47.078Z,1026.95
2019-03-21T05:14:47.073Z,1026.92
2019-03-21T05:15:47.046Z,1026.90
2019-03-21T05:16:47.040Z,1026.95
2019-03-21T05:17:47.027Z,1026.91
2019-03-21T05:18:47.042Z,1026.92
2019-03-21T05:19:47.009Z,1026.97
2019-03-21T05:20:46.999Z,1026.93
2019-03-21T05:21:46.991Z,1026.94
2019-03-21T05:22:46.968Z,1026.88
2019-03-21T05:23:46.960Z,1026.95
2019-03-21T05:24:46.964Z,1026.95
2019-03-21T05:25:46.943Z,1026.91
2019-03-21T05:26:46.937Z,1026.91
2019-03-21T05:27:46.914Z,1026.93
2019-03-21T05:28:46.905Z,1026.94
2019-03-21T05:29:46.891Z,1026.95
2019-03-21T05:30:46.889Z,1026.97
2019-03-21T05:31:46.878Z,1026.97
2019-03-21T05:32:46.863Z,1027.00
2019-03-21T05:33:46.848Z,1026.97
2019-03-21T05:34:46.841Z,1026.91
2019-03-21T05:35:46.838Z,1026.92
2019-03-21T05:36:46.819Z,1026.98
2019-03-21T05:37:46.809Z,1026.96
2019-03-21T05:38:46.797Z,1026.88
2019-03-21T05:39:46.789Z,1026.93
2019-03-21T05:40:46.791Z,1026.90
2019-03-21T05:41:46.765Z,1026.90
2019-03-21T05:42:46.750Z,1026.91
2019-03-21T05:43:46.744Z,1026.90
2019-03-21T05:44:46.743Z,1026.94
2019-03-21T05:45:46.727Z,1026.94
2019-03-21T05:46:46.713Z,1026.94
2019-03-21T05:47:46.698Z,1026.90
2019-03-21T05:48:46.689Z,1026.91
2019-03-21T05:49:46.722Z,1026.97
2019-03-21T05:50:46.663Z,1026.95
2019-03-21T05:51:46.656Z,1027.02
2019-03-21T05:52:46.645Z,1027.00
2019-03-21T05:53:46.635Z,1027.03
2019-03-21T05:54:46.622Z,1027.07
2019-03-21T05:55:46.617Z,1027.06
2019-03-21T05:56:46.635Z,1027.05
2019-03-21T05:57:46.594Z,1027.03
2019-03-21T05:58:46.580Z,1027.06
2019-03-21T05:59:46.578Z,1027.06
2019-03-21T06:00:46.560Z,1027.08
2019-03-21T06:01:46.549Z,1027.05
2019-03-21T06:02:46.583Z,1027.08
2019-03-21T06:03:46.557Z,1027.13
2019-03-21T06:04:46.510Z,1027.06
2019-03-21T06:05:46.505Z,1027.08
2019-03-21T06:06:46.494Z,1027.07
2019-03-21T06:07:46.484Z,1027.07
2019-03-21T06:08:46.475Z,1027.11
2019-03-21T06:09:46.455Z,1027.14
2019-03-21T06:10:46.450Z,1027.14
2019-03-21T06:11:46.453Z,1027.08
2019-03-21T06:12:46.430Z,1027.16
2019-03-21T06:13:46.413Z,1027.16
2019-03-21T06:14:46.408Z,1027.19
2019-03-21T06:15:46.395Z,1027.21
2019-03-21T06:16:46.418Z,1027.22
2019-03-21T06:17:46.383Z,1027.20
2019-03-21T06:18:46.357Z,1027.21
2019-03-21T06:19:46.356Z,1027.20
2019-03-21T06:20:46.354Z,1027.24
2019-03-21T06:21:46.328Z,1027.19
2019-03-21T06:22:46.336Z,1027.22
2019-03-21T06:23:46.309Z,1027.24
2019-03-21T06:24:46.299Z,1027.24
2019-03-21T06:25:46.286Z,1027.22
2019-03-21T06:26:46.277Z,1027.23
2019-03-21T06:27:46.289Z,1027.25
2019-03-21T06:28:46.255Z,1027.29
2019-03-21T06:29:46.257Z,1027.31
2019-03-21T06:30:46.232Z,1027.36
2019-03-21T06:31:46.222Z,1027.35
2019-03-21T06:32:46.252Z,1027.35
2019-03-21T06:33:46.202Z,1027.35
2019-03-21T06:34:46.199Z,1027.39
2019-03-21T06:35:46.184Z,1027.40
2019-03-21T06:36:46.169Z,1027.39
2019-03-21T06:37:46.160Z,1027.41
2019-03-21T06:38:46.181Z,1027.42
2019-03-21T06:39:46.175Z,1027.39
2019-03-21T06:40:46.121Z,1027.45
2019-03-21T06:41:46.120Z,1027.43
2019-03-21T06:42:46.121Z,1027.43
2019-03-21T06:43:46.089Z,1027.41
2019-03-21T06:44:46.119Z,1027.47
2019-03-21T06:45:48.191Z,1027.46
2019-03-21T06:46:49.790Z,1027.47
2019-03-21T06:47:46.052Z,1027.45
2019-03-21T06:48:46.035Z,1027.49
2019-03-21T06:49:46.624Z,1027.52
2019-03-21T06:50:46.032Z,1027.55
2019-03-21T06:51:46.006Z,1027.54
2019-03-21T06:52:45.992Z,1027.54
2019-03-21T06:53:45.985Z,1027.56
2019-03-21T06:54:45.968Z,1027.55
2019-03-21T06:55:45.990Z,1027.53
2019-03-21T06:56:45.951Z,1027.54
2019-03-21T06:57:45.935Z,1027.50
2019-03-21T06:58:45.925Z,1027.53
2019-03-21T06:59:45.926Z,1027.49
2019-03-21T07:00:45.908Z,1027.57
2019-03-21T07:01:45.913Z,1027.48
2019-03-21T07:02:45.881Z,1027.58
2019-03-21T07:03:45.870Z,1027.60
2019-03-21T07:04:45.864Z,1027.60
2019-03-21T07:05:45.862Z,1027.62
2019-03-21T07:06:45.853Z,1027.63
2019-03-21T07:07:45.827Z,1027.60
2019-03-21T07:08:45.815Z,1027.70
2019-03-21T07:09:45.818Z,1027.65
2019-03-21T07:10:45.799Z,1027.64
2019-03-21T07:11:45.788Z,1027.67
2019-03-21T07:12:45.798Z,1027.67
2019-03-21T07:13:45.765Z,1027.70
2019-03-21T07:14:45.754Z,1027.65
2019-03-21T07:15:45.743Z,1027.67
2019-03-21T07:16:45.732Z,1027.72
2019-03-21T07:17:45.720Z,1027.69
2019-03-21T07:18:45.742Z,1027.72
2019-03-21T07:19:45.698Z,1027.71
2019-03-21T07:20:45.682Z,1027.73
2019-03-21T07:21:45.677Z,1027.70
2019-03-21T07:22:45.673Z,1027.74
2019-03-21T07:23:45.657Z,1027.73
2019-03-21T07:24:45.652Z,1027.78
2019-03-21T07:25:45.624Z,1027.77
2019-03-21T07:26:45.613Z,1027.78
2019-03-21T07:27:45.601Z,1027.81
2019-03-21T07:28:45.621Z,1027.73
2019-03-21T07:29:45.581Z,1027.74
2019-03-21T07:30:45.617Z,1027.74
2019-03-21T07:31:45.554Z,1027.75
2019-03-21T07:32:45.546Z,1027.71
2019-03-21T07:33:45.537Z,1027.76
2019-03-21T07:34:45.543Z,1027.83
2019-03-21T07:35:45.532Z,1027.87
2019-03-21T07:36:45.496Z,1027.83
2019-03-21T07:37:45.491Z,1027.85
2019-03-21T07:38:45.476Z,1027.83
2019-03-21T07:39:45.486Z,1027.86
2019-03-21T07:40:45.463Z,1027.80
2019-03-21T07:41:45.459Z,1027.88
2019-03-21T07:42:45.429Z,1027.87
2019-03-21T07:43:45.425Z,1027.92
2019-03-21T07:44:45.425Z,1027.93
2019-03-21T07:45:45.400Z,1027.93
2019-03-21T07:46:45.393Z,1027.99
2019-03-21T07:47:45.377Z,1027.94
2019-03-21T07:48:45.360Z,1027.94
2019-03-21T07:49:45.348Z,1027.93
2019-03-21T07:50:45.355Z,1028.01
2019-03-21T07:51:45.455Z,1027.96
2019-03-21T07:52:45.318Z,1027.98
2019-03-21T07:53:45.310Z,1027.96
2019-03-21T07:54:45.316Z,1027.98
2019-03-21T07:55:45.283Z,1028.00
2019-03-21T07:56:45.274Z,1027.97
2019-03-21T07:57:45.300Z,1027.96
2019-03-21T07:58:45.251Z,1027.97
2019-03-21T07:59:45.252Z,1027.95
2019-03-21T08:00:45.228Z,1027.93
2019-03-21T08:01:45.214Z,1027.91
2019-03-21T08:02:45.204Z,1027.92
2019-03-21T08:03:45.212Z,1027.89
2019-03-21T08:04:45.183Z,1027.91
2019-03-21T08:05:45.173Z,1027.94
2019-03-21T08:06:45.161Z,1027.95
2019-03-21T08:07:45.168Z,1027.93
2019-03-21T08:08:45.137Z,1027.93
2019-03-21T08:09:45.121Z,1027.96
2019-03-21T08:10:45.115Z,1027.92
2019-03-21T08:11:45.097Z,1027.93
2019-03-21T08:12:45.219Z,1027.95
2019-03-21T08:13:45.080Z,1027.99
2019-03-21T08:14:45.082Z,1027.94
2019-03-21T08:15:45.053Z,1028.03
2019-03-21T08:16:45.048Z,1028.02
2019-03-21T08:17:45.086Z,1028.03
2019-03-21T08:18:45.057Z,1028.06
2019-03-21T08:19:45.005Z,1028.02
2019-03-21T08:20:55.670Z,1028.00
2019-03-21T08:21:45.984Z,1028.07
2019-03-21T08:22:44.982Z,1028.03
2019-03-21T08:23:44.964Z,1028.07
2019-03-21T08:24:44.962Z,1028.02
2019-03-21T08:25:44.944Z,1028.02
2019-03-21T08:26:45.707Z,1027.99
2019-03-21T08:27:44.919Z,1027.94
2019-03-21T08:28:44.903Z,1028.04
2019-03-21T08:29:44.929Z,1028.02
2019-03-21T08:30:44.893Z,1027.96
2019-03-21T08:31:44.884Z,1027.99
2019-03-21T08:32:44.862Z,1027.99
2019-03-21T08:33:44.846Z,1028.02
2019-03-21T08:34:44.836Z,1028.08
2019-03-21T08:35:44.837Z,1028.07
2019-03-21T08:36:44.825Z,1028.08
2019-03-21T08:37:44.816Z,1028.07
2019-03-21T08:38:44.791Z,1028.09
2019-03-21T08:39:44.779Z,1028.16
2019-03-21T08:40:44.801Z,1028.17
2019-03-21T08:41:44.822Z,1028.15
2019-03-21T08:42:44.755Z,1028.15
2019-03-21T08:43:44.751Z,1028.11
2019-03-21T08:44:44.724Z,1028.12
2019-03-21T08:45:44.714Z,1028.08
2019-03-21T08:46:44.703Z,1028.17
2019-03-21T08:47:44.697Z,1028.12
2019-03-21T08:48:44.690Z,1028.14
2019-03-21T08:49:44.669Z,1028.19
2019-03-21T08:50:44.659Z,1028.20
2019-03-21T08:51:44.668Z,1028.16
2019-03-21T08:52:44.641Z,1028.16
2019-03-21T08:53:44.649Z,1028.16
2019-03-21T08:54:44.618Z,1028.16
2019-03-21T08:55:44.600Z,1028.14
2019-03-21T08:56:44.606Z,1028.13
2019-03-21T08:57:44.595Z,1028.12
2019-03-21T08:58:44.572Z,1028.16
2019-03-21T08:59:44.557Z,1028.19
2019-03-21T09:00:44.552Z,1028.19
2019-03-21T09:01:44.537Z,1028.13
2019-03-21T09:02:44.529Z,1028.20
2019-03-21T09:03:44.520Z,1028.19
2019-03-21T09:04:44.511Z,1028.21
2019-03-21T09:05:44.489Z,1028.24
2019-03-21T09:06:44.496Z,1028.24
2019-03-21T09:07:44.473Z,1028.19
2019-03-21T09:08:44.480Z,1028.19
2019-03-21T09:09:44.454Z,1028.28
2019-03-21T09:10:44.447Z,1028.20
2019-03-21T09:11:44.442Z,1028.26
2019-03-21T09:12:44.416Z,1028.28
2019-03-21T09:13:44.419Z,1028.25
2019-03-21T09:14:44.388Z,1028.21
2019-03-21T09:15:44.382Z,1028.19
2019-03-21T09:16:44.374Z,1028.23
2019-03-21T09:17:44.357Z,1028.19
2019-03-21T09:18:44.360Z,1028.23
2019-03-21T09:19:44.346Z,1028.17
2019-03-21T09:20:44.323Z,1028.20
2019-03-21T09:21:44.338Z,1028.17
2019-03-21T09:22:44.304Z,1028.20
2019-03-21T09:23:44.310Z,1028.23
2019-03-21T09:24:44.283Z,1028.30
2019-03-21T09:25:44.267Z,1028.26
2019-03-21T09:26:44.683Z,1028.23
2019-03-21T09:27:44.262Z,1028.27
2019-03-21T09:28:44.236Z,1028.31
2019-03-21T09:29:53.041Z,1028.20
2019-03-21T09:30:45.215Z,1028.24
2019-03-21T09:31:44.219Z,1028.22
2019-03-21T09:32:44.189Z,1028.26
2019-03-21T09:33:44.177Z,1028.26
2019-03-21T09:34:44.182Z,1028.18
2019-03-21T09:35:44.154Z,1028.24
2019-03-21T09:36:44.147Z,1028.19
2019-03-21T09:37:44.135Z,1028.20
2019-03-21T09:38:44.128Z,1028.22
2019-03-21T09:39:44.120Z,1028.21
2019-03-21T09:40:44.104Z,1028.20
2019-03-21T09:41:44.108Z,1028.15
2019-03-21T09:42:44.093Z,1028.13
2019-03-21T09:43:44.076Z,1028.12
2019-03-21T09:44:44.055Z,1028.20
2019-03-21T09:45:44.047Z,1028.20
2019-03-21T09:46:50.811Z,1028.21
2019-03-21T09:47:45.023Z,1028.15
2019-03-21T09:48:44.023Z,1028.10
2019-03-21T09:49:44.010Z,1028.12
2019-03-21T09:50:44.001Z,1028.21
2019-03-21T09:51:43.975Z,1028.09
2019-03-21T09:52:43.973Z,1028.14
2019-03-21T09:53:43.992Z,1028.10
2019-03-21T09:54:43.942Z,1028.09
2019-03-21T09:55:43.950Z,1028.06
2019-03-21T09:56:43.925Z,1028.08
2019-03-21T09:57:43.908Z,1028.07
2019-03-21T09:58:43.909Z,1028.04
2019-03-21T09:59:43.899Z,1028.12
2019-03-21T10:00:43.877Z,1028.06
2019-03-21T10:01:43.873Z,1028.09
2019-03-21T10:02:43.855Z,1028.07
2019-03-21T10:03:43.846Z,1028.06
2019-03-21T10:04:43.853Z,1028.05
2019-03-21T10:05:43.843Z,1028.05
2019-03-21T10:06:43.818Z,1028.01
2019-03-21T10:07:43.811Z,1028.08
2019-03-21T10:08:43.800Z,1028.09
2019-03-21T10:09:43.797Z,1028.08
2019-03-21T10:10:43.763Z,1028.02
2019-03-21T10:11:43.765Z,1028.04
2019-03-21T10:12:43.785Z,1028.03
2019-03-21T10:13:43.730Z,1028.09
2019-03-21T10:14:43.725Z,1028.04
2019-03-21T10:15:43.716Z,1028.08
2019-03-21T10:16:43.703Z,1028.06
2019-03-21T10:17:43.739Z,1028.03
2019-03-21T10:18:43.695Z,1028.07
2019-03-21T10:19:43.672Z,1028.11
2019-03-21T10:20:43.656Z,1027.99
2019-03-21T10:21:43.934Z,1028.05
2019-03-21T10:22:43.630Z,1028.03
2019-03-21T10:23:43.623Z,1028.02
2019-03-21T10:24:43.619Z,1028.05
2019-03-21T10:25:43.603Z,1028.08
2019-03-21T10:26:43.862Z,1028.05
2019-03-21T10:27:43.578Z,1028.10
2019-03-21T10:28:43.569Z,1028.12
2019-03-21T10:29:43.572Z,1028.10
2019-03-21T10:30:43.540Z,1028.10
2019-03-21T10:31:43.557Z,1028.12
2019-03-21T10:32:43.520Z,1028.06
2019-03-21T10:33:43.513Z,1028.08
2019-03-21T10:34:43.510Z,1028.13
2019-03-21T10:35:43.499Z,1028.07
2019-03-21T10:36:43.484Z,1028.05
2019-03-21T10:37:43.467Z,1028.13
2019-03-21T10:38:43.468Z,1028.08
2019-03-21T10:39:43.444Z,1028.07
2019-03-21T10:40:43.433Z,1028.14
2019-03-21T10:41:43.417Z,1028.11
2019-03-21T10:42:43.411Z,1028.04
2019-03-21T10:43:43.407Z,1028.03
2019-03-21T10:44:43.387Z,1028.00
2019-03-21T10:45:43.384Z,1028.12
2019-03-21T10:46:43.366Z,1028.06
2019-03-21T10:47:43.356Z,1028.12
2019-03-21T10:48:43.347Z,1028.13
2019-03-21T10:49:43.336Z,1028.06
2019-03-21T10:50:43.325Z,1028.03
2019-03-21T10:51:54.090Z,1028.05
2019-03-21T10:52:44.303Z,1028.01
2019-03-21T10:53:43.287Z,1028.01
2019-03-21T10:54:43.289Z,1027.99
2019-03-21T10:55:43.282Z,1028.01
2019-03-21T10:56:43.250Z,1028.01
2019-03-21T10:57:43.244Z,1028.01
2019-03-21T10:58:43.236Z,1027.97
2019-03-21T10:59:43.227Z,1027.94
2019-03-21T11:00:43.208Z,1027.97
2019-03-21T11:01:43.206Z,1027.92
2019-03-21T11:02:43.182Z,1027.95
2019-03-21T11:03:43.173Z,1027.97
2019-03-21T11:04:43.169Z,1027.95
2019-03-21T11:05:43.152Z,1027.92
2019-03-21T11:06:43.147Z,1027.93
2019-03-21T11:07:43.142Z,1027.96
2019-03-21T11:08:43.121Z,1027.93
2019-03-21T11:09:43.110Z,1027.94
2019-03-21T11:10:43.102Z,1027.94
2019-03-21T11:11:43.106Z,1027.95
2019-03-21T11:12:43.075Z,1027.92
2019-03-21T11:13:43.075Z,1027.91
2019-03-21T11:14:43.053Z,1027.91
2019-03-21T11:15:43.041Z,1027.87
2019-03-21T11:16:43.042Z,1027.91
2019-03-21T11:17:43.056Z,1027.92
2019-03-21T11:18:43.012Z,1027.91
2019-03-21T11:19:42.992Z,1027.92
2019-03-21T11:20:42.981Z,1027.89
2019-03-21T11:21:42.976Z,1027.87
2019-03-21T11:22:42.975Z,1027.88
2019-03-21T11:23:42.963Z,1027.83
2019-03-21T11:24:42.942Z,1027.87
2019-03-21T11:25:42.934Z,1027.89
2019-03-21T11:26:42.915Z,1027.89
2019-03-21T11:27:42.924Z,1027.87
2019-03-21T11:28:42.905Z,1027.85
2019-03-21T11:29:42.882Z,1027.87
2019-03-21T11:30:42.894Z,1027.77
2019-03-21T11:31:42.866Z,1027.81
2019-03-21T11:32:42.861Z,1027.78
2019-03-21T11:33:42.841Z,1027.76
2019-03-21T11:34:42.846Z,1027.77
2019-03-21T11:35:42.821Z,1027.77
2019-03-21T11:36:42.804Z,1027.68
2019-03-21T11:37:42.802Z,1027.70
2019-03-21T11:38:42.787Z,1027.71
2019-03-21T11:39:42.789Z,1027.68
2019-03-21T11:40:42.758Z,1027.74
2019-03-21T11:41:42.751Z,1027.73
2019-03-21T11:42:42.741Z,1027.70
2019-03-21T11:43:42.733Z,1027.72
2019-03-21T11:44:42.731Z,1027.69
2019-03-21T11:45:42.727Z,1027.67
2019-03-21T11:46:42.694Z,1027.69
2019-03-21T11:47:42.701Z,1027.59
2019-03-21T11:48:42.675Z,1027.68
2019-03-21T11:49:42.685Z,1027.66
2019-03-21T11:50:42.656Z,1027.69
2019-03-21T11:51:42.635Z,1027.66
2019-03-21T11:52:42.624Z,1027.72
2019-03-21T11:53:42.642Z,1027.62
2019-03-21T11:54:42.604Z,1027.68
2019-03-21T11:55:42.610Z,1027.69
2019-03-21T11:56:42.597Z,1027.70
2019-03-21T11:57:42.574Z,1027.77
2019-03-21T11:58:42.565Z,1027.71
2019-03-21T11:59:51.430Z,1027.65
2019-03-21T12:00:45.186Z,1027.72
2019-03-21T12:01:42.554Z,1027.61
2019-03-21T12:02:42.524Z,1027.71
2019-03-21T12:03:42.508Z,1027.70
2019-03-21T12:04:42.495Z,1027.69
2019-03-21T12:05:42.483Z,1027.64